createdAt,value
2017-07-04T00:00:31.915Z,51.23
2017-07-04T00:02:59.038Z,51.23
2017-07-04T00:05:26.110Z,51.25
2017-07-04T00:07:53.182Z,51.18
2017-07-04T00:10:20.304Z,51.17
2017-07-04T00:12:47.378Z,51.15
2017-07-04T00:15:14.458Z,51.17
2017-07-04T00:17:41.602Z,51.17
2017-07-04T00:20:08.682Z,51.20
2017-07-04T00:22:35.769Z,51.29
2017-07-04T00:25:02.890Z,51.31
2017-07-04T00:27:29.967Z,51.40
2017-07-04T00:29:57.042Z,51.48
2017-07-04T00:32:24.197Z,51.42
2017-07-04T00:34:51.294Z,51.44
2017-07-04T00:37:18.453Z,51.42
2017-07-04T00:39:45.562Z,51.45
2017-07-04T00:42:12.773Z,51.48
2017-07-04T00:44:39.846Z,51.49
2017-07-04T00:47:06.955Z,51.47
2017-07-04T00:49:34.131Z,51.48
2017-07-04T00:52:01.210Z,51.50
2017-07-04T00:54:28.349Z,51.55
2017-07-04T00:56:55.419Z,51.54
2017-07-04T00:59:22.495Z,51.53
2017-07-04T01:01:49.605Z,51.57
2017-07-04T01:04:16.674Z,51.55
2017-07-04T01:06:43.740Z,51.53
2017-07-04T01:09:10.869Z,51.51
2017-07-04T01:11:37.941Z,51.51
2017-07-04T01:14:05.053Z,51.56
2017-07-04T01:16:32.169Z,51.55
2017-07-04T01:18:59.246Z,51.55
2017-07-04T01:21:26.338Z,51.57
2017-07-04T01:23:53.446Z,51.63
2017-07-04T01:26:20.534Z,51.66
2017-07-04T01:28:47.608Z,51.71
2017-07-04T01:31:14.720Z,51.79
2017-07-04T01:33:41.829Z,51.92
2017-07-04T01:36:08.902Z,51.96
2017-07-04T01:38:36.028Z,51.97
2017-07-04T01:41:03.097Z,51.97
2017-07-04T01:43:30.174Z,51.87
2017-07-04T01:45:57.286Z,51.92
2017-07-04T01:48:24.475Z,51.95
2017-07-04T01:50:51.542Z,52.01
2017-07-04T01:53:18.671Z,51.98
2017-07-04T01:55:45.742Z,51.95
2017-07-04T01:58:12.815Z,51.89
2017-07-04T02:00:39.919Z,52.00
2017-07-04T02:03:07.025Z,52.15
2017-07-04T02:05:34.104Z,52.13
2017-07-04T02:08:01.238Z,52.23
2017-07-04T02:10:28.329Z,52.27
2017-07-04T02:12:55.399Z,52.30
2017-07-04T02:15:23.373Z,52.31
2017-07-04T02:17:50.496Z,52.44
2017-07-04T02:20:17.574Z,52.36
2017-07-04T02:22:44.694Z,52.42
2017-07-04T02:25:11.763Z,52.41
2017-07-04T02:27:38.828Z,52.46
2017-07-04T02:30:05.942Z,52.48
2017-07-04T02:32:33.013Z,52.47
2017-07-04T02:35:00.086Z,52.76
2017-07-04T02:37:27.201Z,52.98
2017-07-04T02:39:54.274Z,53.22
2017-07-04T02:42:21.347Z,53.11
2017-07-04T02:44:48.455Z,53.27
2017-07-04T02:47:15.529Z,53.55
2017-07-04T02:49:42.597Z,53.58
2017-07-04T02:52:09.723Z,53.97
2017-07-04T02:54:36.785Z,54.12
2017-07-04T02:57:03.859Z,54.25
2017-07-04T02:59:30.989Z,54.07
2017-07-04T03:01:58.078Z,54.16
2017-07-04T03:04:25.179Z,54.24
2017-07-04T03:06:52.297Z,54.23
2017-07-04T03:09:19.365Z,54.15
2017-07-04T03:11:46.430Z,54.40
2017-07-04T03:14:13.540Z,54.26
2017-07-04T03:16:40.610Z,54.12
2017-07-04T03:19:07.685Z,54.34
2017-07-04T03:21:34.794Z,54.31
2017-07-04T03:24:01.867Z,54.16
2017-07-04T03:26:28.937Z,54.20
2017-07-04T03:28:56.059Z,54.20
2017-07-04T03:31:23.132Z,54.25
2017-07-04T03:33:50.202Z,54.14
2017-07-04T03:36:17.308Z,54.15
2017-07-04T03:38:44.381Z,54.17
2017-07-04T03:41:11.467Z,54.20
2017-07-04T03:43:38.577Z,54.17
2017-07-04T03:46:05.647Z,54.17
2017-07-04T03:48:32.717Z,54.17
2017-07-04T03:50:59.832Z,54.20
2017-07-04T03:53:26.908Z,54.27
2017-07-04T03:55:53.989Z,54.28
2017-07-04T03:58:21.105Z,54.36
2017-07-04T04:00:48.181Z,54.35
2017-07-04T04:03:15.269Z,54.43
2017-07-04T04:05:42.402Z,54.40
2017-07-04T04:08:09.487Z,54.45
2017-07-04T04:10:36.572Z,54.66
2017-07-04T04:13:03.711Z,54.65
2017-07-04T04:15:30.781Z,54.74
2017-07-04T04:17:57.856Z,54.90
2017-07-04T04:20:24.966Z,54.61
2017-07-04T04:22:52.037Z,54.80
2017-07-04T04:25:19.111Z,54.78
2017-07-04T04:27:46.245Z,54.66
2017-07-04T04:30:13.339Z,54.81
2017-07-04T04:32:40.411Z,54.68
2017-07-04T04:35:07.533Z,54.66
2017-07-04T04:37:34.614Z,54.43
2017-07-04T04:40:01.682Z,54.66
2017-07-04T04:42:28.798Z,54.56
2017-07-04T04:44:55.887Z,54.45
2017-07-04T04:47:22.969Z,54.38
2017-07-04T04:49:50.078Z,54.57
2017-07-04T04:52:17.150Z,54.56
2017-07-04T04:54:44.230Z,54.49
2017-07-04T04:57:11.354Z,54.51
2017-07-04T04:59:38.434Z,54.58
2017-07-04T05:02:05.558Z,55.38
2017-07-04T05:04:32.669Z,54.91
2017-07-04T05:06:59.795Z,55.41
2017-07-04T05:09:26.878Z,55.34
2017-07-04T05:11:53.988Z,55.76
2017-07-04T05:14:21.066Z,56.02
2017-07-04T05:16:48.152Z,55.59
2017-07-04T05:19:15.266Z,55.66
2017-07-04T05:21:42.350Z,55.76
2017-07-04T05:24:09.429Z,55.71
2017-07-04T05:26:36.550Z,55.68
2017-07-04T05:29:03.629Z,55.50
2017-07-04T05:31:30.715Z,55.59
2017-07-04T05:33:57.863Z,55.52
2017-07-04T05:36:24.941Z,55.51
2017-07-04T05:38:52.019Z,55.28
2017-07-04T05:41:19.145Z,55.37
2017-07-04T05:43:46.222Z,55.24
2017-07-04T05:46:13.293Z,55.22
2017-07-04T05:48:40.474Z,55.15
2017-07-04T05:51:07.545Z,55.05
2017-07-04T05:53:34.612Z,55.08
2017-07-04T05:56:01.725Z,55.00
2017-07-04T05:58:28.797Z,55.00
2017-07-04T06:00:55.881Z,54.77
2017-07-04T06:03:23.002Z,54.76
2017-07-04T06:05:50.080Z,54.66
2017-07-04T06:08:17.165Z,54.72
2017-07-04T06:10:44.298Z,54.68
2017-07-04T06:13:11.376Z,54.61
2017-07-04T06:15:38.452Z,54.57
2017-07-04T06:18:05.573Z,54.67
2017-07-04T06:20:32.647Z,54.49
2017-07-04T06:22:59.730Z,54.49
2017-07-04T06:25:26.879Z,54.46
2017-07-04T06:27:53.963Z,54.39
2017-07-04T06:30:21.036Z,54.40
2017-07-04T06:32:48.148Z,54.38
2017-07-04T06:35:15.234Z,54.34
2017-07-04T06:37:42.305Z,54.42
2017-07-04T06:40:09.423Z,54.40
2017-07-04T06:42:36.503Z,54.37
2017-07-04T06:45:03.584Z,54.41
2017-07-04T06:47:30.724Z,54.21
2017-07-04T06:49:57.803Z,54.25
2017-07-04T06:52:24.955Z,54.18
2017-07-04T06:54:52.087Z,54.17
2017-07-04T06:57:19.164Z,54.16
2017-07-04T06:59:46.250Z,54.13
2017-07-04T07:02:13.384Z,54.30
2017-07-04T07:04:40.467Z,54.21
2017-07-04T07:07:07.610Z,54.13
2017-07-04T07:09:34.729Z,54.15
2017-07-04T07:12:01.818Z,54.10
2017-07-04T07:14:28.892Z,54.10
2017-07-04T07:16:56.002Z,54.12
2017-07-04T07:19:23.077Z,54.07
2017-07-04T07:21:50.158Z,54.08
2017-07-04T07:24:17.287Z,54.08
2017-07-04T07:26:44.403Z,54.04
2017-07-04T07:29:11.473Z,54.03
2017-07-04T07:31:38.611Z,53.97
2017-07-04T07:34:05.690Z,54.05
2017-07-04T07:36:32.757Z,54.02
2017-07-04T07:38:59.898Z,53.96
2017-07-04T07:41:27.040Z,53.92
2017-07-04T07:43:54.121Z,53.98
2017-07-04T07:46:21.264Z,53.93
2017-07-04T07:48:48.342Z,53.90
2017-07-04T07:51:15.423Z,53.97
2017-07-04T07:53:42.534Z,53.91
2017-07-04T07:56:09.619Z,53.96
2017-07-04T07:58:36.694Z,53.91
2017-07-04T08:01:03.814Z,53.83
2017-07-04T08:03:30.890Z,54.01
2017-07-04T08:05:57.969Z,53.80
2017-07-04T08:08:25.111Z,53.88
2017-07-04T08:10:52.189Z,53.92
2017-07-04T08:13:19.270Z,53.80
2017-07-04T08:15:46.386Z,53.76
2017-07-04T08:18:13.569Z,53.84
2017-07-04T08:20:40.651Z,53.87
2017-07-04T08:23:07.783Z,53.83
2017-07-04T08:25:34.855Z,53.81
2017-07-04T08:28:01.939Z,53.88
2017-07-04T08:30:29.085Z,53.79
2017-07-04T08:32:56.153Z,53.88
2017-07-04T08:35:23.227Z,53.77
2017-07-04T08:37:50.361Z,53.72
2017-07-04T08:40:17.437Z,53.71
2017-07-04T08:42:44.515Z,53.77
2017-07-04T08:45:11.644Z,53.85
2017-07-04T08:47:38.731Z,53.82
2017-07-04T08:50:05.834Z,53.69
2017-07-04T08:52:32.982Z,53.74
2017-07-04T08:55:00.067Z,53.70
2017-07-04T08:57:27.155Z,53.70
2017-07-04T08:59:54.270Z,53.62
2017-07-04T09:02:21.349Z,53.64
2017-07-04T09:04:48.438Z,53.68
2017-07-04T09:07:15.554Z,53.60
2017-07-04T09:09:42.637Z,53.57
2017-07-04T09:12:09.709Z,53.62
2017-07-04T09:14:36.823Z,53.62
2017-07-04T09:17:03.924Z,53.54
2017-07-04T09:19:31.014Z,53.50
2017-07-04T09:21:58.154Z,53.47
2017-07-04T09:24:25.234Z,53.43
2017-07-04T09:26:52.335Z,53.44
2017-07-04T09:29:19.464Z,53.51
2017-07-04T09:31:46.553Z,53.34
2017-07-04T09:34:13.639Z,53.34
2017-07-04T09:36:40.780Z,53.34
2017-07-04T09:39:07.845Z,53.30
2017-07-04T09:41:34.921Z,53.30
2017-07-04T09:44:02.061Z,53.25
2017-07-04T09:46:29.140Z,53.24
2017-07-04T09:48:56.221Z,53.24
2017-07-04T09:51:23.359Z,53.23
2017-07-04T09:53:50.436Z,53.21
2017-07-04T09:56:17.518Z,53.17
2017-07-04T09:58:44.638Z,53.16
2017-07-04T10:01:11.711Z,53.13
2017-07-04T10:03:38.797Z,53.12
2017-07-04T10:06:05.910Z,53.14
2017-07-04T10:08:33.001Z,53.15
2017-07-04T10:11:00.082Z,53.15
2017-07-04T10:13:27.194Z,53.10
2017-07-04T10:15:54.275Z,53.09
2017-07-04T10:18:21.346Z,53.09
2017-07-04T10:20:48.468Z,53.08
2017-07-04T10:23:15.547Z,53.07
2017-07-04T10:25:42.617Z,53.08
2017-07-04T10:28:09.745Z,53.05
2017-07-04T10:30:36.822Z,53.01
2017-07-04T10:33:03.906Z,53.02
2017-07-04T10:35:31.013Z,53.01
2017-07-04T10:37:58.088Z,53.00
2017-07-04T10:40:25.179Z,52.96
2017-07-04T10:42:52.315Z,52.99
2017-07-04T10:45:19.398Z,52.97
2017-07-04T10:47:46.479Z,52.93
2017-07-04T10:50:13.613Z,52.91
2017-07-04T10:52:40.687Z,52.92
2017-07-04T10:55:07.757Z,52.92
2017-07-04T10:57:34.877Z,52.91
2017-07-04T11:00:01.950Z,52.92
2017-07-04T11:02:29.083Z,52.89
2017-07-04T11:04:56.224Z,52.88
2017-07-04T11:07:23.297Z,52.90
2017-07-04T11:09:50.376Z,52.89
2017-07-04T11:12:17.517Z,52.87
2017-07-04T11:14:44.592Z,52.87
2017-07-04T11:17:11.676Z,52.85
2017-07-04T11:19:38.792Z,52.87
2017-07-04T11:22:05.872Z,52.86
2017-07-04T11:24:32.947Z,52.84
2017-07-04T11:27:00.086Z,52.84
2017-07-04T11:29:27.159Z,52.83
2017-07-04T11:31:54.239Z,52.81
2017-07-04T11:34:21.387Z,52.76
2017-07-04T11:36:48.466Z,52.76
2017-07-04T11:39:15.537Z,52.76
2017-07-04T11:41:42.675Z,52.79
2017-07-04T11:44:09.762Z,52.78
2017-07-04T11:46:36.849Z,52.79
2017-07-04T11:49:03.981Z,52.76
2017-07-04T11:51:31.059Z,52.75
2017-07-04T11:53:58.210Z,52.75
2017-07-04T11:56:25.361Z,52.71
2017-07-04T11:58:52.438Z,52.75
2017-07-04T12:01:19.543Z,52.68
2017-07-04T12:03:46.659Z,52.66
2017-07-04T12:06:13.758Z,52.67
2017-07-04T12:08:40.845Z,52.71
2017-07-04T12:11:07.958Z,52.70
2017-07-04T12:13:35.032Z,52.63
2017-07-04T12:16:02.116Z,52.65
2017-07-04T12:18:29.230Z,52.65
2017-07-04T12:20:56.321Z,52.64
2017-07-04T12:23:23.428Z,52.61
2017-07-04T12:25:50.573Z,52.65
2017-07-04T12:28:17.645Z,52.63
2017-07-04T12:30:44.719Z,52.63
2017-07-04T12:33:11.845Z,52.61
2017-07-04T12:35:38.927Z,52.66
2017-07-04T12:38:06.002Z,52.60
2017-07-04T12:40:33.153Z,52.58
2017-07-04T12:43:00.247Z,52.59
2017-07-04T12:45:27.334Z,52.59
2017-07-04T12:47:54.467Z,52.59
2017-07-04T12:50:21.570Z,52.61
2017-07-04T12:52:48.651Z,52.60
2017-07-04T12:55:15.776Z,52.62
2017-07-04T12:57:42.854Z,52.60
2017-07-04T13:00:09.931Z,52.61
2017-07-04T13:02:37.056Z,52.61
2017-07-04T13:05:04.151Z,52.60
2017-07-04T13:07:31.226Z,52.60
2017-07-04T13:09:58.343Z,52.61
2017-07-04T13:12:25.429Z,52.63
2017-07-04T13:14:52.510Z,52.62
2017-07-04T13:17:19.645Z,52.59
2017-07-04T13:19:46.715Z,52.60
2017-07-04T13:22:13.790Z,52.62
2017-07-04T13:24:40.903Z,52.62
2017-07-04T13:27:07.974Z,52.64
2017-07-04T13:29:35.047Z,52.65
2017-07-04T13:32:02.153Z,52.65
2017-07-04T13:34:29.221Z,52.65
2017-07-04T13:36:56.361Z,52.64
2017-07-04T13:39:23.433Z,52.65
2017-07-04T13:41:50.509Z,52.64
2017-07-04T13:44:17.639Z,52.65
2017-07-04T13:46:44.714Z,52.71
2017-07-04T13:49:11.791Z,52.65
2017-07-04T13:51:38.931Z,52.64
2017-07-04T13:54:06.012Z,52.66
2017-07-04T13:56:33.087Z,52.67
2017-07-04T13:59:00.210Z,52.68
2017-07-04T14:01:27.287Z,52.67
2017-07-04T14:03:54.365Z,52.69
2017-07-04T14:06:21.475Z,52.68
2017-07-04T14:08:48.570Z,52.67
2017-07-04T14:11:15.670Z,52.65
2017-07-04T14:13:42.785Z,52.65
2017-07-04T14:16:09.863Z,52.62
2017-07-04T14:18:36.945Z,52.63
2017-07-04T14:21:04.091Z,52.65
2017-07-04T14:23:31.169Z,52.68
2017-07-04T14:25:58.250Z,52.68
2017-07-04T14:28:25.379Z,52.69
2017-07-04T14:30:52.479Z,52.70
2017-07-04T14:33:19.561Z,52.70
2017-07-04T14:35:46.683Z,52.71
2017-07-04T14:38:13.766Z,52.70
2017-07-04T14:40:40.934Z,52.69
2017-07-04T14:43:08.073Z,52.71
2017-07-04T14:45:35.155Z,52.72
2017-07-04T14:48:02.243Z,52.70
2017-07-04T14:50:29.370Z,52.70
2017-07-04T14:52:56.461Z,52.74
2017-07-04T14:55:23.573Z,52.74
2017-07-04T14:57:50.790Z,52.72
2017-07-04T15:00:17.858Z,52.75
2017-07-04T15:02:44.943Z,52.75
2017-07-04T15:05:12.075Z,52.75
2017-07-04T15:07:39.151Z,52.76
2017-07-04T15:10:06.225Z,52.75
2017-07-04T15:12:33.362Z,52.77
2017-07-04T15:15:00.436Z,52.82
2017-07-04T15:17:27.534Z,52.83
2017-07-04T15:19:54.665Z,52.85
2017-07-04T15:22:21.737Z,52.88
2017-07-04T15:24:48.832Z,52.88
2017-07-04T15:27:15.962Z,52.91
2017-07-04T15:29:43.043Z,52.91
2017-07-04T15:32:10.133Z,52.92
2017-07-04T15:34:37.280Z,52.90
2017-07-04T15:37:04.361Z,52.90
2017-07-04T15:39:31.448Z,52.90
2017-07-04T15:41:58.593Z,52.91
2017-07-04T15:44:25.680Z,52.94
2017-07-04T15:46:52.756Z,52.94
2017-07-04T15:49:19.896Z,52.96
2017-07-04T15:51:46.969Z,52.97
2017-07-04T15:54:14.036Z,53.00
2017-07-04T15:56:41.172Z,53.01
2017-07-04T15:59:08.255Z,52.99
2017-07-04T16:01:35.335Z,52.93
2017-07-04T16:04:02.458Z,53.01
2017-07-04T16:06:29.533Z,53.02
2017-07-04T16:08:56.613Z,53.05
2017-07-04T16:11:23.738Z,52.87
2017-07-04T16:13:50.820Z,53.03
2017-07-04T16:16:17.894Z,53.09
2017-07-04T16:18:45.005Z,53.10
2017-07-04T16:21:12.081Z,53.21
2017-07-04T16:23:39.163Z,53.22
2017-07-04T16:26:06.300Z,53.17
2017-07-04T16:28:33.374Z,52.97
2017-07-04T16:31:00.454Z,52.50
2017-07-04T16:33:27.618Z,52.31
2017-07-04T16:35:54.695Z,52.44
2017-07-04T16:38:21.782Z,52.53
2017-07-04T16:40:48.910Z,52.43
2017-07-04T16:43:15.993Z,52.45
2017-07-04T16:45:43.068Z,52.34
2017-07-04T16:48:10.204Z,52.32
2017-07-04T16:50:37.281Z,52.19
2017-07-04T16:53:04.360Z,52.32
2017-07-04T16:55:31.502Z,52.28
2017-07-04T16:57:58.578Z,52.34
2017-07-04T17:00:25.656Z,52.32
2017-07-04T17:02:52.791Z,52.25
2017-07-04T17:05:19.866Z,52.31
2017-07-04T17:07:46.944Z,52.20
2017-07-04T17:10:14.070Z,52.06
2017-07-04T17:12:41.155Z,52.06
2017-07-04T17:15:08.230Z,51.92
2017-07-04T17:17:35.350Z,52.01
2017-07-04T17:20:02.428Z,51.92
2017-07-04T17:22:29.511Z,51.86
2017-07-04T17:24:56.632Z,51.87
2017-07-04T17:27:23.726Z,51.74
2017-07-04T17:29:50.817Z,51.61
2017-07-04T17:32:18.049Z,51.46
2017-07-04T17:34:45.126Z,51.48
2017-07-04T17:37:12.195Z,51.49
2017-07-04T17:39:39.331Z,51.49
2017-07-04T17:42:06.410Z,51.39
2017-07-04T17:44:33.503Z,51.35
2017-07-04T17:47:00.645Z,51.51
2017-07-04T17:49:27.729Z,51.25
2017-07-04T17:51:54.811Z,51.04
2017-07-04T17:54:22.157Z,51.14
2017-07-04T17:56:49.251Z,51.28
2017-07-04T17:59:16.483Z,51.21
2017-07-04T18:01:43.695Z,51.24
2017-07-04T18:04:10.809Z,51.08
2017-07-04T18:06:37.899Z,51.26
2017-07-04T18:09:05.038Z,51.34
2017-07-04T18:11:32.109Z,51.09
2017-07-04T18:13:59.186Z,51.22
2017-07-04T18:16:27.174Z,51.33
2017-07-04T18:18:54.263Z,51.30
2017-07-04T18:21:21.341Z,51.31
2017-07-04T18:23:48.473Z,51.33
2017-07-04T18:26:15.564Z,51.28
2017-07-04T18:28:42.647Z,51.40
2017-07-04T18:31:09.778Z,51.42
2017-07-04T18:33:36.860Z,51.31
2017-07-04T18:36:03.936Z,51.45
2017-07-04T18:38:31.350Z,51.39
2017-07-04T18:40:58.431Z,51.29
2017-07-04T18:43:25.510Z,51.29
2017-07-04T18:45:52.647Z,51.34
2017-07-04T18:48:19.725Z,51.34
2017-07-04T18:50:46.898Z,51.30
2017-07-04T18:53:14.022Z,51.34
2017-07-04T18:55:41.103Z,51.31
2017-07-04T18:58:08.178Z,51.45
2017-07-04T19:00:35.295Z,51.35
2017-07-04T19:03:02.373Z,51.27
2017-07-04T19:05:29.453Z,51.07
2017-07-04T19:07:56.573Z,51.08
2017-07-04T19:10:23.659Z,51.01
2017-07-04T19:12:50.744Z,50.92
2017-07-04T19:15:17.871Z,50.94
2017-07-04T19:17:44.946Z,50.77
2017-07-04T19:20:12.029Z,50.78
2017-07-04T19:22:39.161Z,50.99
2017-07-04T19:25:06.244Z,50.88
2017-07-04T19:27:33.334Z,50.93
2017-07-04T19:30:00.478Z,50.90
2017-07-04T19:32:27.555Z,50.92
2017-07-04T19:34:54.640Z,50.96
2017-07-04T19:37:21.767Z,50.89
2017-07-04T19:39:48.858Z,50.83
2017-07-04T19:42:15.947Z,50.97
2017-07-04T19:44:43.078Z,50.91
2017-07-04T19:47:10.154Z,50.81
2017-07-04T19:49:37.242Z,50.79
2017-07-04T19:52:04.371Z,50.89
2017-07-04T19:54:31.454Z,50.81
2017-07-04T19:56:58.535Z,50.86
2017-07-04T19:59:25.671Z,50.75
2017-07-04T20:01:52.750Z,50.85
2017-07-04T20:04:19.836Z,50.76
2017-07-04T20:06:47.109Z,50.61
2017-07-04T20:09:14.235Z,50.88
2017-07-04T20:11:41.316Z,50.66
2017-07-04T20:14:08.453Z,50.89
2017-07-04T20:16:35.528Z,51.08
2017-07-04T20:19:02.596Z,50.98
2017-07-04T20:21:29.706Z,50.99
2017-07-04T20:23:56.780Z,50.93
2017-07-04T20:26:23.862Z,50.94
2017-07-04T20:28:51.035Z,50.82
2017-07-04T20:31:18.234Z,50.74
2017-07-04T20:33:45.322Z,50.77
2017-07-04T20:36:12.461Z,50.82
2017-07-04T20:38:39.551Z,50.91
2017-07-04T20:41:06.629Z,50.85
2017-07-04T20:43:33.750Z,51.25
2017-07-04T20:46:00.927Z,51.18
2017-07-04T20:48:28.008Z,51.09
2017-07-04T20:50:55.175Z,51.17
2017-07-04T20:53:22.278Z,51.28
2017-07-04T20:55:49.351Z,51.21
2017-07-04T20:58:16.577Z,51.18
2017-07-04T21:00:43.655Z,51.17
2017-07-04T21:03:10.739Z,51.36
2017-07-04T21:05:38.027Z,51.28
2017-07-04T21:08:05.097Z,51.35
2017-07-04T21:10:32.188Z,51.40
2017-07-04T21:12:59.315Z,51.45
2017-07-04T21:15:26.395Z,51.72
2017-07-04T21:17:53.487Z,51.89
2017-07-04T21:20:20.614Z,52.09
2017-07-04T21:22:47.689Z,52.43
2017-07-04T21:25:14.768Z,52.58
2017-07-04T21:27:41.968Z,52.63
2017-07-04T21:30:09.052Z,52.65
2017-07-04T21:32:36.152Z,52.60
2017-07-04T21:35:03.270Z,52.82
2017-07-04T21:37:30.347Z,52.79
2017-07-04T21:39:57.425Z,52.92
2017-07-04T21:42:24.554Z,52.95
2017-07-04T21:44:51.654Z,53.00
2017-07-04T21:47:18.740Z,52.96
2017-07-04T21:49:45.858Z,52.96
2017-07-04T21:52:12.938Z,52.92
2017-07-04T21:54:40.117Z,53.04
2017-07-04T21:57:07.244Z,53.11
2017-07-04T21:59:34.352Z,53.21
2017-07-04T22:02:01.428Z,53.19
2017-07-04T22:04:28.556Z,53.31
2017-07-04T22:06:55.640Z,53.38
2017-07-04T22:09:22.715Z,53.25
2017-07-04T22:11:49.850Z,53.37
2017-07-04T22:14:16.926Z,53.34
2017-07-04T22:16:44.003Z,53.28
2017-07-04T22:19:11.114Z,53.34
2017-07-04T22:21:38.216Z,53.26
2017-07-04T22:24:05.307Z,53.32
2017-07-04T22:26:32.445Z,53.34
2017-07-04T22:28:59.523Z,53.34
2017-07-04T22:31:26.606Z,53.42
2017-07-04T22:33:53.746Z,53.39
2017-07-04T22:36:20.846Z,53.43
2017-07-04T22:38:47.923Z,53.43
2017-07-04T22:41:15.047Z,53.43
2017-07-04T22:43:42.121Z,53.49
2017-07-04T22:46:09.193Z,53.49
2017-07-04T22:48:36.323Z,53.49
2017-07-04T22:51:03.519Z,53.42
2017-07-04T22:53:30.615Z,53.36
2017-07-04T22:55:57.766Z,53.28
2017-07-04T22:58:24.842Z,53.26
2017-07-04T23:00:51.941Z,53.23
2017-07-04T23:03:19.082Z,53.17
2017-07-04T23:05:46.165Z,52.95
2017-07-04T23:08:13.254Z,52.82
2017-07-04T23:10:40.372Z,52.76
2017-07-04T23:13:07.448Z,52.69
2017-07-04T23:15:34.733Z,52.55
2017-07-04T23:18:01.846Z,52.48
2017-07-04T23:20:28.931Z,52.41
2017-07-04T23:22:56.010Z,52.31
2017-07-04T23:25:23.140Z,52.36
2017-07-04T23:27:50.219Z,52.42
2017-07-04T23:30:17.325Z,52.40
2017-07-04T23:32:44.442Z,52.36
2017-07-04T23:35:11.524Z,52.41
2017-07-04T23:37:38.603Z,52.43
2017-07-04T23:40:05.739Z,52.37
2017-07-04T23:42:32.873Z,52.36
2017-07-04T23:44:59.950Z,52.39
2017-07-04T23:47:27.128Z,52.46
2017-07-04T23:49:54.219Z,52.46
2017-07-04T23:52:21.290Z,52.45
2017-07-04T23:54:48.406Z,52.53
2017-07-04T23:57:15.491Z,52.60
2017-07-04T23:59:42.565Z,52.67
